createdAt,value
2018-07-06T00:01:25.477Z,19.40
2018-07-06T00:04:05.220Z,19.40
2018-07-06T00:06:44.782Z,19.30
2018-07-06T00:09:25.206Z,19.30
2018-07-06T00:12:04.852Z,19.20
2018-07-06T00:14:44.403Z,19.30
2018-07-06T00:17:24.123Z,19.30
2018-07-06T00:20:03.782Z,19.20
2018-07-06T00:22:43.434Z,19.20
2018-07-06T00:25:23.194Z,19.20
2018-07-06T00:28:03.024Z,19.20
2018-07-06T00:30:42.786Z,19.10
2018-07-06T00:33:22.634Z,19.10
2018-07-06T00:36:02.334Z,19.00
2018-07-06T00:38:41.970Z,18.90
2018-07-06T00:41:21.778Z,18.80
2018-07-06T00:44:01.531Z,18.70
2018-07-06T00:46:41.090Z,18.70
2018-07-06T00:49:20.753Z,18.60
2018-07-06T00:52:00.494Z,18.60
2018-07-06T00:54:40.164Z,18.60
2018-07-06T00:57:19.806Z,18.60
2018-07-06T00:59:59.339Z,18.50
2018-07-06T01:02:39.107Z,18.30
2018-07-06T01:05:18.698Z,18.30
2018-07-06T01:07:58.342Z,18.40
2018-07-06T01:10:37.979Z,18.40
2018-07-06T01:15:51.410Z,18.30
2018-07-06T01:18:31.184Z,18.30
2018-07-06T01:21:10.866Z,18.30
2018-07-06T01:23:50.600Z,18.20
2018-07-06T01:26:30.523Z,18.20
2018-07-06T01:29:10.295Z,18.10
2018-07-06T01:31:49.919Z,18.00
2018-07-06T01:34:29.558Z,18.00
2018-07-06T01:37:09.156Z,17.90
2018-07-06T01:39:48.755Z,17.80
2018-07-06T01:42:28.420Z,17.80
2018-07-06T01:45:08.127Z,17.70
2018-07-06T01:47:47.807Z,17.70
2018-07-06T01:50:27.702Z,17.60
2018-07-06T01:53:07.412Z,17.60
2018-07-06T01:55:47.259Z,17.50
2018-07-06T02:01:00.623Z,17.50
2018-07-06T02:03:40.371Z,17.40
2018-07-06T02:06:20.167Z,17.30
2018-07-06T02:08:59.911Z,17.30
2018-07-06T02:11:39.538Z,17.30
2018-07-06T02:14:19.384Z,17.30
2018-07-06T02:16:59.054Z,17.20
2018-07-06T02:19:38.789Z,17.10
2018-07-06T02:22:18.482Z,17.10
2018-07-06T02:24:58.355Z,17.10
2018-07-06T02:27:38.095Z,17.00
2018-07-06T02:30:17.791Z,17.00
2018-07-06T02:32:57.460Z,16.90
2018-07-06T02:35:37.343Z,17.00
2018-07-06T02:38:16.987Z,16.80
2018-07-06T02:40:56.747Z,16.80
2018-07-06T02:43:36.462Z,16.70
2018-07-06T02:46:16.014Z,16.60
2018-07-06T02:48:55.806Z,16.60
2018-07-06T02:51:35.579Z,16.70
2018-07-06T02:54:15.126Z,16.70
2018-07-06T02:56:54.853Z,16.70
2018-07-06T02:59:34.395Z,16.60
2018-07-06T03:02:14.135Z,16.50
2018-07-06T03:04:53.683Z,16.60
2018-07-06T03:07:33.245Z,16.50
2018-07-06T03:10:12.910Z,16.50
2018-07-06T03:12:52.513Z,16.40
2018-07-06T03:15:32.214Z,16.40
2018-07-06T03:18:12.015Z,16.40
2018-07-06T03:20:51.775Z,16.40
2018-07-06T03:23:31.312Z,16.40
2018-07-06T03:26:11.062Z,16.50
2018-07-06T03:28:50.918Z,16.50
2018-07-06T03:31:30.337Z,16.50
2018-07-06T03:34:09.914Z,16.40
2018-07-06T03:36:49.625Z,16.40
2018-07-06T03:39:29.499Z,16.30
2018-07-06T03:42:09.108Z,16.20
2018-07-06T03:44:48.883Z,16.20
2018-07-06T03:47:28.659Z,16.20
2018-07-06T03:50:08.519Z,16.30
2018-07-06T03:52:48.346Z,16.30
2018-07-06T03:55:28.035Z,16.30
2018-07-06T03:58:07.712Z,16.40
2018-07-06T04:00:47.294Z,16.40
2018-07-06T04:03:27.020Z,16.40
2018-07-06T04:06:06.883Z,16.40
2018-07-06T04:08:46.552Z,16.50
2018-07-06T04:11:26.317Z,16.50
2018-07-06T04:14:05.962Z,16.50
2018-07-06T04:16:45.443Z,16.50
2018-07-06T04:19:25.247Z,16.50
2018-07-06T04:22:05.102Z,16.50
2018-07-06T04:24:44.731Z,16.50
2018-07-06T04:27:24.463Z,16.50
2018-07-06T04:30:04.159Z,16.50
2018-07-06T04:32:43.881Z,16.50
2018-07-06T04:35:23.523Z,16.50
2018-07-06T04:38:03.202Z,16.50
2018-07-06T04:40:42.974Z,16.60
2018-07-06T04:43:22.862Z,16.60
2018-07-06T04:46:02.788Z,16.60
2018-07-06T04:48:42.471Z,16.60
2018-07-06T04:53:55.726Z,16.60
2018-07-06T04:56:35.383Z,16.70
2018-07-06T04:59:15.260Z,16.80
2018-07-06T05:01:54.807Z,16.80
2018-07-06T05:04:34.573Z,16.80
2018-07-06T05:07:14.323Z,16.90
2018-07-06T05:09:53.925Z,17.00
2018-07-06T05:12:33.735Z,17.10
2018-07-06T05:15:13.379Z,17.20
2018-07-06T05:17:53.055Z,17.30
2018-07-06T05:20:32.804Z,17.50
2018-07-06T05:23:12.524Z,17.60
2018-07-06T05:25:52.068Z,17.40
2018-07-06T05:28:31.824Z,17.60
2018-07-06T05:31:11.476Z,17.70
2018-07-06T05:33:51.255Z,18.00
2018-07-06T05:36:30.751Z,18.30
2018-07-06T05:39:10.543Z,18.60
2018-07-06T05:41:50.110Z,18.70
2018-07-06T05:44:29.630Z,18.90
2018-07-06T05:48:12.619Z,19.10
2018-07-06T05:50:52.393Z,19.10
2018-07-06T05:53:31.995Z,19.00
2018-07-06T05:56:11.751Z,19.00
2018-07-06T05:58:51.526Z,18.80
2018-07-06T06:01:31.185Z,18.70
2018-07-06T06:04:10.874Z,18.70
2018-07-06T06:06:50.582Z,18.70
2018-07-06T06:09:18.902Z,18.60
2018-07-06T06:11:47.255Z,18.50
2018-07-06T06:14:15.587Z,18.30
2018-07-06T06:16:43.915Z,18.30
2018-07-06T06:19:12.343Z,18.30
2018-07-06T06:21:40.665Z,18.30
2018-07-06T06:24:09.029Z,18.30
2018-07-06T06:26:37.354Z,18.30
2018-07-06T06:29:05.720Z,18.20
2018-07-06T06:31:34.140Z,18.20
2018-07-06T06:34:03.056Z,18.10
2018-07-06T06:36:32.098Z,18.00
2018-07-06T06:39:00.551Z,18.00
2018-07-06T06:43:56.987Z,18.10
2018-07-06T06:46:25.354Z,18.10
2018-07-06T06:48:53.754Z,18.20
2018-07-06T06:51:22.123Z,18.30
2018-07-06T06:53:50.515Z,18.30
2018-07-06T06:56:18.862Z,18.30
2018-07-06T06:58:47.270Z,18.50
2018-07-06T07:01:15.664Z,18.50
2018-07-06T07:03:44.070Z,18.60
2018-07-06T07:06:12.440Z,18.70
2018-07-06T07:08:40.815Z,18.60
2018-07-06T07:11:09.178Z,18.90
2018-07-06T07:13:37.601Z,19.20
2018-07-06T07:16:05.946Z,19.20
2018-07-06T07:18:34.316Z,19.00
2018-07-06T07:21:02.756Z,18.90
2018-07-06T07:23:31.107Z,18.80
2018-07-06T07:25:59.495Z,18.70
2018-07-06T07:28:27.894Z,19.00
2018-07-06T07:30:56.246Z,19.40
2018-07-06T07:33:24.644Z,19.90
2018-07-06T07:35:53.007Z,20.20
2018-07-06T07:38:21.383Z,20.40
2018-07-06T07:40:49.726Z,20.80
2018-07-06T07:43:18.187Z,21.00
2018-07-06T07:45:46.578Z,21.20
2018-07-06T07:48:14.943Z,21.20
2018-07-06T07:50:54.771Z,21.10
2018-07-06T07:53:34.547Z,21.10
2018-07-06T07:56:02.934Z,21.10
2018-07-06T07:58:31.301Z,20.90
2018-07-06T08:00:59.856Z,21.20
2018-07-06T08:03:28.055Z,21.40
2018-07-06T08:05:56.443Z,21.50
2018-07-06T08:08:24.826Z,21.50
2018-07-06T08:10:53.190Z,21.30
2018-07-06T08:13:21.790Z,21.20
2018-07-06T08:15:51.518Z,20.90
2018-07-06T08:18:19.920Z,20.80
2018-07-06T08:20:48.242Z,20.70
2018-07-06T08:23:16.755Z,20.70
2018-07-06T08:25:45.111Z,20.80
2018-07-06T08:28:13.456Z,20.80
2018-07-06T08:30:41.894Z,20.90
2018-07-06T08:33:10.251Z,21.20
2018-07-06T08:35:49.907Z,21.20
2018-07-06T08:38:18.265Z,21.20
2018-07-06T08:40:46.599Z,21.40
2018-07-06T08:43:14.938Z,21.50
2018-07-06T08:45:43.303Z,21.40
2018-07-06T08:48:11.671Z,21.30
2018-07-06T08:50:40.019Z,21.10
2018-07-06T08:53:08.386Z,20.90
2018-07-06T08:55:36.739Z,20.90
2018-07-06T08:58:05.087Z,20.80
2018-07-06T09:00:33.434Z,20.90
2018-07-06T09:03:01.759Z,21.00
2018-07-06T09:05:30.156Z,21.00
2018-07-06T09:07:58.495Z,20.90
2018-07-06T09:10:26.883Z,21.00
2018-07-06T09:12:55.242Z,21.00
2018-07-06T09:15:23.565Z,21.00
2018-07-06T09:17:51.899Z,20.90
2018-07-06T09:20:20.243Z,21.00
2018-07-06T09:25:23.628Z,20.90
2018-07-06T09:27:51.642Z,20.90
2018-07-06T09:30:19.994Z,21.00
2018-07-06T09:32:48.320Z,21.10
2018-07-06T09:35:16.683Z,21.20
2018-07-06T09:37:45.071Z,21.40
2018-07-06T09:40:13.506Z,21.70
2018-07-06T09:42:41.766Z,21.80
2018-07-06T09:45:10.123Z,21.70
2018-07-06T09:47:38.451Z,21.80
2018-07-06T09:50:06.863Z,21.90
2018-07-06T09:52:35.186Z,22.00
2018-07-06T09:55:03.565Z,22.10
2018-07-06T09:57:31.919Z,22.10
2018-07-06T10:00:00.266Z,22.20
2018-07-06T10:02:29.393Z,22.60
2018-07-06T10:04:57.791Z,22.60
2018-07-06T10:07:26.141Z,22.40
2018-07-06T10:09:54.648Z,22.10
2018-07-06T10:12:22.866Z,22.30
2018-07-06T10:14:51.210Z,22.60
2018-07-06T10:17:19.616Z,22.80
2018-07-06T10:19:48.123Z,22.80
2018-07-06T10:22:16.459Z,22.80
2018-07-06T10:24:44.935Z,22.70
2018-07-06T10:27:13.347Z,22.80
2018-07-06T10:29:57.687Z,22.90
2018-07-06T10:32:27.159Z,22.90
2018-07-06T10:34:56.202Z,22.70
2018-07-06T10:37:24.955Z,22.60
2018-07-06T10:39:53.746Z,22.60
2018-07-06T10:42:22.007Z,22.90
2018-07-06T10:44:50.450Z,23.10
2018-07-06T10:47:18.808Z,23.40
2018-07-06T10:49:47.191Z,23.60
2018-07-06T10:52:16.175Z,23.60
2018-07-06T10:54:45.148Z,23.60
2018-07-06T10:57:13.594Z,23.80
2018-07-06T10:59:42.100Z,23.60
2018-07-06T11:02:10.518Z,23.80
2018-07-06T11:04:38.942Z,23.90
2018-07-06T11:07:07.298Z,23.60
2018-07-06T11:09:35.674Z,23.90
2018-07-06T11:12:04.031Z,24.10
2018-07-06T11:14:32.367Z,24.20
2018-07-06T11:17:00.862Z,24.20
2018-07-06T11:19:29.191Z,24.20
2018-07-06T11:21:57.550Z,23.80
2018-07-06T11:24:25.898Z,23.70
2018-07-06T11:26:54.861Z,23.80
2018-07-06T11:29:23.211Z,24.00
2018-07-06T11:31:51.568Z,24.20
2018-07-06T11:34:19.938Z,24.40
2018-07-06T11:36:48.299Z,24.60
2018-07-06T11:39:16.637Z,24.50
2018-07-06T11:41:44.990Z,24.70
2018-07-06T11:44:13.351Z,24.50
2018-07-06T11:46:41.830Z,24.40
2018-07-06T11:49:10.179Z,24.60
2018-07-06T11:51:38.539Z,24.90
2018-07-06T11:54:06.899Z,24.90
2018-07-06T11:56:35.275Z,25.00
2018-07-06T11:59:03.639Z,25.00
2018-07-06T12:04:34.675Z,25.20
2018-07-06T12:07:02.997Z,25.10
2018-07-06T12:09:31.354Z,25.20
2018-07-06T12:11:59.701Z,25.10
2018-07-06T12:14:28.126Z,25.20
2018-07-06T12:16:56.517Z,25.30
2018-07-06T12:19:24.862Z,25.20
2018-07-06T12:21:53.875Z,25.30
2018-07-06T12:24:22.685Z,25.40
2018-07-06T12:26:51.494Z,25.50
2018-07-06T12:29:20.849Z,25.60
2018-07-06T12:31:49.829Z,25.50
2018-07-06T12:34:19.008Z,25.60
2018-07-06T12:36:47.446Z,25.70
2018-07-06T12:39:15.870Z,25.90
2018-07-06T12:41:44.219Z,26.00
2018-07-06T12:44:12.829Z,26.10
2018-07-06T12:46:41.649Z,26.10
2018-07-06T12:49:10.026Z,26.00
2018-07-06T12:51:38.413Z,26.10
2018-07-06T12:54:06.801Z,25.90
2018-07-06T12:56:35.193Z,25.80
2018-07-06T12:59:03.569Z,26.00
2018-07-06T13:01:31.998Z,26.20
2018-07-06T13:04:00.346Z,26.20
2018-07-06T13:06:28.709Z,26.10
2018-07-06T13:08:57.083Z,26.00
2018-07-06T13:11:25.450Z,26.00
2018-07-06T13:13:53.818Z,25.80
2018-07-06T13:16:22.821Z,25.90
2018-07-06T13:18:51.172Z,26.00
2018-07-06T13:21:19.529Z,26.00
2018-07-06T13:23:48.000Z,26.00
2018-07-06T13:28:44.511Z,25.90
2018-07-06T13:31:12.938Z,25.90
2018-07-06T13:33:41.340Z,25.80
2018-07-06T13:36:09.670Z,26.00
2018-07-06T13:38:38.037Z,26.00
2018-07-06T13:41:06.725Z,26.20
2018-07-06T13:43:35.087Z,26.20
2018-07-06T13:46:03.450Z,26.20
2018-07-06T13:48:31.986Z,26.30
2018-07-06T13:51:00.312Z,26.30
2018-07-06T13:53:28.906Z,26.30
2018-07-06T13:55:57.240Z,26.30
2018-07-06T13:58:25.673Z,26.20
2018-07-06T14:00:54.478Z,26.10
2018-07-06T14:03:22.853Z,26.20
2018-07-06T14:05:51.358Z,26.20
2018-07-06T14:08:19.621Z,26.30
2018-07-06T14:10:47.981Z,26.20
2018-07-06T14:13:16.341Z,26.20
2018-07-06T14:15:44.678Z,26.30
2018-07-06T14:18:13.089Z,26.40
2018-07-06T14:20:41.493Z,26.30
2018-07-06T14:23:09.893Z,26.30
2018-07-06T14:25:38.709Z,26.30
2018-07-06T14:28:07.947Z,26.20
2018-07-06T14:30:36.289Z,26.20
2018-07-06T14:33:04.647Z,26.10
2018-07-06T14:35:33.022Z,26.00
2018-07-06T14:38:01.516Z,25.90
2018-07-06T14:40:29.874Z,25.90
2018-07-06T14:42:58.349Z,25.80
2018-07-06T14:45:26.701Z,25.70
2018-07-06T14:47:55.097Z,25.50
2018-07-06T14:50:23.513Z,25.50
2018-07-06T14:52:51.999Z,25.50
2018-07-06T14:55:20.765Z,25.50
2018-07-06T14:57:49.154Z,25.40
2018-07-06T15:00:17.609Z,25.40
2018-07-06T15:02:46.006Z,25.40
2018-07-06T15:05:14.402Z,25.50
2018-07-06T15:07:42.761Z,25.60
2018-07-06T15:10:11.590Z,25.70
2018-07-06T15:12:40.030Z,25.60
2018-07-06T15:15:08.361Z,25.70
2018-07-06T15:17:37.115Z,25.70
2018-07-06T15:20:05.517Z,25.70
2018-07-06T15:22:33.985Z,25.70
2018-07-06T15:27:30.453Z,25.60
2018-07-06T15:29:58.821Z,25.50
2018-07-06T15:32:27.333Z,25.60
2018-07-06T15:34:55.677Z,25.60
2018-07-06T15:37:24.077Z,25.60
2018-07-06T15:39:52.431Z,25.50
2018-07-06T15:42:20.797Z,25.60
2018-07-06T15:44:49.153Z,25.60
2018-07-06T15:47:17.561Z,25.80
2018-07-06T15:49:45.917Z,25.80
2018-07-06T15:52:14.313Z,25.80
2018-07-06T15:54:42.720Z,25.90
2018-07-06T15:57:11.082Z,26.00
2018-07-06T15:59:39.582Z,25.80
2018-07-06T16:02:07.961Z,25.60
2018-07-06T16:04:36.483Z,25.70
2018-07-06T16:07:04.893Z,25.70
2018-07-06T16:09:33.277Z,25.60
2018-07-06T16:12:01.613Z,25.60
2018-07-06T16:14:30.073Z,25.60
2018-07-06T16:16:58.615Z,25.60
2018-07-06T16:19:27.114Z,25.70
2018-07-06T16:21:55.441Z,25.60
2018-07-06T16:24:23.877Z,25.60
2018-07-06T16:26:52.205Z,25.60
2018-07-06T16:29:20.820Z,25.60
2018-07-06T16:31:49.174Z,25.60
2018-07-06T16:34:17.585Z,25.60
2018-07-06T16:36:45.961Z,25.70
2018-07-06T16:39:14.465Z,25.70
2018-07-06T16:41:42.828Z,25.70
2018-07-06T16:44:11.177Z,25.70
2018-07-06T16:46:39.497Z,25.70
2018-07-06T16:49:07.870Z,25.90
2018-07-06T16:51:36.226Z,25.90
2018-07-06T16:54:04.585Z,25.90
2018-07-06T16:56:32.994Z,25.90
2018-07-06T16:59:01.438Z,25.80
2018-07-06T17:01:29.766Z,25.80
2018-07-06T17:03:57.778Z,25.80
2018-07-06T17:06:26.118Z,25.70
2018-07-06T17:08:54.561Z,25.60
2018-07-06T17:11:22.926Z,25.60
2018-07-06T17:13:51.320Z,25.50
2018-07-06T17:16:19.614Z,25.50
2018-07-06T17:18:48.208Z,25.50
2018-07-06T17:21:16.542Z,25.50
2018-07-06T17:23:44.885Z,25.40
2018-07-06T17:26:20.051Z,25.40
2018-07-06T17:28:48.393Z,25.40
2018-07-06T17:31:16.813Z,25.40
2018-07-06T17:33:45.171Z,25.30
2018-07-06T17:36:13.515Z,25.20
2018-07-06T17:38:41.890Z,25.30
2018-07-06T17:41:10.286Z,25.30
2018-07-06T17:43:38.646Z,25.40
2018-07-06T17:46:06.989Z,25.40
2018-07-06T17:48:35.533Z,25.40
2018-07-06T17:51:03.904Z,25.30
2018-07-06T17:53:32.254Z,25.30
2018-07-06T17:56:00.622Z,25.40
2018-07-06T17:58:28.981Z,25.40
2018-07-06T18:00:57.329Z,25.30
2018-07-06T18:03:25.693Z,25.30
2018-07-06T18:05:54.056Z,25.30
2018-07-06T18:08:22.385Z,25.20
2018-07-06T18:10:50.766Z,25.20
2018-07-06T18:13:19.180Z,25.20
2018-07-06T18:15:47.571Z,25.20
2018-07-06T18:18:15.950Z,25.10
2018-07-06T18:20:44.358Z,25.00
2018-07-06T18:23:12.816Z,25.00
2018-07-06T18:25:41.155Z,24.90
2018-07-06T18:30:37.549Z,24.90
2018-07-06T18:33:05.930Z,24.80
2018-07-06T18:35:34.282Z,24.80
2018-07-06T18:38:02.781Z,24.80
2018-07-06T18:40:31.771Z,24.80
2018-07-06T18:43:00.126Z,24.70
2018-07-06T18:45:28.544Z,24.80
2018-07-06T18:47:56.945Z,24.70
2018-07-06T18:50:25.321Z,24.70
2018-07-06T18:52:53.709Z,24.60
2018-07-06T18:55:22.072Z,24.60
2018-07-06T18:57:50.502Z,24.50
2018-07-06T19:00:18.902Z,24.40
2018-07-06T19:02:47.286Z,24.30
2018-07-06T19:05:15.804Z,24.30
2018-07-06T19:07:44.166Z,24.20
2018-07-06T19:10:12.521Z,24.20
2018-07-06T19:12:40.986Z,24.20
2018-07-06T19:15:09.352Z,24.30
2018-07-06T19:17:37.677Z,24.20
2018-07-06T19:20:06.102Z,24.10
2018-07-06T19:22:34.470Z,24.00
2018-07-06T19:25:02.906Z,23.90
2018-07-06T19:27:31.396Z,23.90
2018-07-06T19:30:00.452Z,23.70
2018-07-06T19:32:28.796Z,23.60
2018-07-06T19:34:57.137Z,23.40
2018-07-06T19:37:25.498Z,23.30
2018-07-06T19:39:53.854Z,23.20
2018-07-06T19:42:22.217Z,23.10
2018-07-06T19:44:50.633Z,23.10
2018-07-06T19:47:18.961Z,23.00
2018-07-06T19:49:47.400Z,22.90
2018-07-06T19:52:15.730Z,22.90
2018-07-06T19:54:44.106Z,22.80
2018-07-06T19:57:12.513Z,22.90
2018-07-06T19:59:40.901Z,22.80
2018-07-06T20:02:09.342Z,22.60
2018-07-06T20:04:37.732Z,22.60
2018-07-06T20:07:06.465Z,22.50
2018-07-06T20:09:34.802Z,22.40
2018-07-06T20:12:03.181Z,22.30
2018-07-06T20:14:31.539Z,22.20
2018-07-06T20:17:00.085Z,22.20
2018-07-06T20:19:28.474Z,22.20
2018-07-06T20:21:56.814Z,22.10
2018-07-06T20:24:25.153Z,22.00
2018-07-06T20:26:53.525Z,22.00
2018-07-06T20:29:21.880Z,21.90
2018-07-06T20:31:50.286Z,21.90
2018-07-06T20:34:18.873Z,21.80
2018-07-06T20:36:47.226Z,21.70
2018-07-06T20:39:15.577Z,21.60
2018-07-06T20:41:43.922Z,21.60
2018-07-06T20:44:12.250Z,21.60
2018-07-06T20:46:40.605Z,21.60
2018-07-06T20:49:09.009Z,21.50
2018-07-06T20:51:37.429Z,21.40
2018-07-06T20:54:05.829Z,21.30
2018-07-06T20:56:34.236Z,21.30
2018-07-06T20:59:09.182Z,21.20
2018-07-06T21:01:37.562Z,21.20
2018-07-06T21:04:06.109Z,21.20
2018-07-06T21:06:34.477Z,21.30
2018-07-06T21:09:03.881Z,21.20
2018-07-06T21:11:32.247Z,21.20
2018-07-06T21:14:00.621Z,21.20
2018-07-06T21:16:28.997Z,21.20
2018-07-06T21:18:57.359Z,21.10
2018-07-06T21:21:25.736Z,21.00
2018-07-06T21:23:54.109Z,21.00
2018-07-06T21:26:22.497Z,21.00
2018-07-06T21:28:50.849Z,20.90
2018-07-06T21:31:19.217Z,20.90
2018-07-06T21:33:47.561Z,20.90
2018-07-06T21:36:16.133Z,20.90
2018-07-06T21:38:44.498Z,20.80
2018-07-06T21:41:12.890Z,20.80
2018-07-06T21:43:41.230Z,20.80
2018-07-06T21:46:09.656Z,20.80
2018-07-06T21:48:40.085Z,20.70
2018-07-06T21:51:08.486Z,20.70
2018-07-06T21:53:36.884Z,20.70
2018-07-06T21:56:05.298Z,20.70
2018-07-06T21:58:33.713Z,20.60
2018-07-06T22:01:02.171Z,20.70
2018-07-06T22:03:30.626Z,20.70
2018-07-06T22:05:59.157Z,20.70
2018-07-06T22:08:27.534Z,20.60
2018-07-06T22:10:55.885Z,20.60
2018-07-06T22:13:24.269Z,20.60
2018-07-06T22:15:52.625Z,20.60
2018-07-06T22:18:20.994Z,20.50
2018-07-06T22:20:49.752Z,20.50
2018-07-06T22:23:18.281Z,20.50
2018-07-06T22:25:46.741Z,20.40
2018-07-06T22:28:15.134Z,20.40
2018-07-06T22:30:43.515Z,20.40
2018-07-06T22:33:11.900Z,20.40
2018-07-06T22:35:40.332Z,20.30
2018-07-06T22:38:08.709Z,20.30
2018-07-06T22:40:37.057Z,20.20
2018-07-06T22:43:05.554Z,20.20
2018-07-06T22:45:33.932Z,20.20
2018-07-06T22:48:02.301Z,20.20
2018-07-06T22:50:30.689Z,20.20
2018-07-06T22:52:59.082Z,20.10
2018-07-06T22:55:27.454Z,20.10
2018-07-06T22:57:55.844Z,20.10
2018-07-06T23:00:24.193Z,20.00
2018-07-06T23:02:53.645Z,20.00
2018-07-06T23:05:22.028Z,20.00
2018-07-06T23:07:50.422Z,20.00
2018-07-06T23:10:18.813Z,20.00
2018-07-06T23:12:47.202Z,19.90
2018-07-06T23:15:15.596Z,19.90
2018-07-06T23:17:43.977Z,19.90
2018-07-06T23:20:12.359Z,19.90
2018-07-06T23:23:07.168Z,19.90
2018-07-06T23:25:39.838Z,19.80
2018-07-06T23:28:08.281Z,19.80
2018-07-06T23:30:37.250Z,19.80
2018-07-06T23:33:06.422Z,19.80
2018-07-06T23:35:34.977Z,19.70
2018-07-06T23:38:03.416Z,19.70
2018-07-06T23:40:31.810Z,19.70
2018-07-06T23:43:00.412Z,19.60
2018-07-06T23:45:28.802Z,19.60
2018-07-06T23:47:57.194Z,19.50
2018-07-06T23:50:25.593Z,19.50
2018-07-06T23:52:54.178Z,19.50
2018-07-06T23:55:22.581Z,19.40
2018-07-06T23:57:51.012Z,19.30
